Nearby METAR Reports

 

KBFI - Boeing Field Seattle, WA, USA
Distance from station: SE 4mi, 7km
Updated: Sun, 18-Apr-2021 7:53am PDT
Clear
Clear
 Wind from SSE
Wind: SSE 5 mph , 7 km/h
Temperature: 52°F , 11°C
Dew Point: 45°F , 7°C
Humidity: 77%
Barometer: 30.18 inHg , 1022 hPa
Clouds: Clear
Visibility: 10 miles , 16 km
2021/04/18 14:53 KBFI 181453Z 15004KT 10SM CLR 11/07 A3018 RMK AO2 SLP218 T01060067 51003
KSEA - Seattle/Metro, WA, USA
Distance from station: NE 5mi, 8km
Updated: Sun, 18-Apr-2021 7:53am PDT
Few Clouds
Few Clouds
 Wind from S
Wind: S 5 mph , 7 km/h
Temperature: 55°F , 13°C
Dew Point: 39°F , 4°C
Humidity: 55%
Barometer: 30.17 inHg , 1021.7 hPa
Clouds: Few Clouds
Visibility: 10 miles , 16 km
Cloud details: Few Clouds 20000 ft
2021/04/18 14:53 KSEA 181453Z 17004KT 10SM FEW200 13/04 A3017 RMK AO2 SLP222 T01330044 53003
 
KTIW - Tacoma, WA, USA
Distance from station: S 30mi, 45km
Updated: Sun, 18-Apr-2021 7:53am PDT
Clear
Clear
 Wind from S
Wind: S 3 mph , 6 km/h
Temperature: 52°F , 11°C
Dew Point: 39°F , 4°C
Humidity: 62%
Barometer: 30.18 inHg , 1022 hPa
Clouds: Clear
Visibility: 10 miles , 16 km
2021/04/18 14:53 KTIW 181453Z 18003KT 10SM CLR 11/04 A3018 RMK AO2 SLP219 T01060044 53004
KCLM - Port Angeles, WA, USA
Distance from station: NW 70mi, 100km
Updated: Sun, 18-Apr-2021 7:53am PDT
Clear
Clear
 Wind from calm
Wind: Calm
Temperature: 54°F , 12°C
Dew Point: 45°F , 7°C
Humidity: 72%
Barometer: 30.18 inHg , 1022 hPa
Clouds: Clear
Visibility: 10 miles , 16 km
2021/04/18 14:53 KCLM 181453Z AUTO 00000KT 10SM CLR 12/07 A3018 RMK AO2 SLP221 T01220067 53003